Time;durP1;ratioP1;P1;durP2;ratioP2;P2;SDS_P1;SDS_P2;PMS_P1;PMS_P2;Temp;Humidity;BMP_temperature;BMP_pressure;BME280_temperature;BME280_humidity;BME280_pressure;Samples;Min_cycle;Max_cycle;Signal;HPM_P1;HPM_P2
2024/02/07 00:02:20;;;;;;;;;;;;;;;3.91;100.00;99876.31;5103608;28;20410;-78
2024/02/07 00:04:45;;;;;;;;;;;;;;;3.83;100.00;99879.06;5093300;28;20371;-78
2024/02/07 00:07:11;;;;;;;;;;;;;;;3.78;100.00;99891.06;5100128;28;20433;-77
2024/02/07 00:09:36;;;;;;;;;;;;;;;3.72;100.00;99897.06;5104579;28;19920;-77
2024/02/07 00:12:03;;;;;;;;;;;;;;;3.71;100.00;99897.25;5098414;28;19996;-77
2024/02/07 00:14:28;;;;;;;;;;;;;;;3.68;100.00;99893.13;5104360;28;19930;-76
2024/02/07 00:16:56;;;;;;;;;;;;;;;3.66;100.00;99889.81;5094516;28;19920;-76
2024/02/07 00:19:21;;;;;;;;;;;;;;;3.67;100.00;99890.63;5092401;28;19931;-79
2024/02/07 00:21:46;;;;;;;;;;;;;;;3.60;100.00;99882.53;5094027;28;19924;-77
2024/02/07 00:24:11;;;;;;;;;;;;;;;3.55;100.00;99882.22;5099379;28;19928;-77
2024/02/07 00:26:37;;;;;;;;;;;;;;;3.52;100.00;99901.22;5092603;28;19970;-77
2024/02/07 00:29:02;;;;;;;;;;;;;;;3.56;100.00;99905.16;5091142;28;20669;-77
2024/02/07 00:31:27;;;;;;;;;;;;;;;3.53;100.00;99894.88;5093660;28;19928;-79
2024/02/07 00:33:56;;;;;;;;;;;;;;;3.45;100.00;99893.06;5098246;28;20027;-77
2024/02/07 00:36:22;;;;;;;;;;;;;;;3.42;100.00;99888.94;5098380;28;19966;-77
2024/02/07 00:38:47;;;;;;;;;;;;;;;3.44;100.00;99902.91;5093213;28;19920;-77
2024/02/07 00:41:19;;;;;;;;;;;;;;;3.45;100.00;99893.91;5103639;28;19984;-77
2024/02/07 00:43:44;;;;;;;;;;;;;;;3.49;100.00;99895.22;5115976;28;19924;-77
2024/02/07 00:46:10;;;;;;;;;;;;;;;3.49;100.00;99889.91;5097864;28;19931;-77
2024/02/07 00:48:35;;;;;;;;;;;;;;;3.49;100.00;99900.56;5099405;28;19920;-78
2024/02/07 00:51:00;;;;;;;;;;;;;;;3.49;100.00;99894.38;5097702;28;19928;-78
2024/02/07 00:53:25;;;;;;;;;;;;;;;3.42;100.00;99894.25;5096823;28;19985;-77
2024/02/07 00:55:51;;;;;;;;;;;;;;;3.40;100.00;99896.25;5094338;28;20003;-77
2024/02/07 00:58:16;;;;;;;;;;;;;;;3.38;100.00;99890.28;5095970;28;20137;-77
2024/02/07 01:00:41;;;;;;;;;;;;;;;3.31;100.00;99892.00;5103519;28;19998;-77
2024/02/07 01:03:06;;;;;;;;;;;;;;;3.33;100.00;99890.00;5100227;28;20027;-77
2024/02/07 01:05:31;;;;;;;;;;;;;;;3.29;100.00;99900.13;5098971;28;19977;-77
2024/02/07 01:07:57;;;;;;;;;;;;;;;3.33;100.00;99892.66;5099236;28;19920;-77
2024/02/07 01:10:22;;;;;;;;;;;;;;;3.26;100.00;99902.31;5096626;28;19924;-78
2024/02/07 01:12:47;;;;;;;;;;;;;;;3.27;100.00;99896.00;5099919;28;19984;-77
2024/02/07 01:15:12;;;;;;;;;;;;;;;3.26;100.00;99897.00;5095913;28;19928;-78
2024/02/07 01:17:38;;;;;;;;;;;;;;;3.24;100.00;99905.16;5091054;28;19965;-78
2024/02/07 01:20:10;;;;;;;;;;;;;;;3.25;100.00;99908.63;5092482;28;20098;-77
2024/02/07 01:22:36;;;;;;;;;;;;;;;3.26;100.00;99915.59;5101649;28;19920;-77
2024/02/07 01:25:01;;;;;;;;;;;;;;;3.31;100.00;99910.63;5089440;28;19965;-77
2024/02/07 01:27:26;;;;;;;;;;;;;;;3.30;100.00;99904.44;5091395;28;19924;-77
2024/02/07 01:29:52;;;;;;;;;;;;;;;3.30;100.00;99914.28;5090264;28;19920;-77
2024/02/07 01:32:17;;;;;;;;;;;;;;;3.32;100.00;99918.41;5091564;28;19920;-78
2024/02/07 01:34:42;;;;;;;;;;;;;;;3.26;100.00;99921.78;5098207;28;19952;-77
2024/02/07 01:37:08;;;;;;;;;;;;;;;3.29;100.00;99912.63;5103882;28;20420;-77
2024/02/07 01:39:34;;;;;;;;;;;;;;;3.30;100.00;99922.25;5091718;28;20355;-77
2024/02/07 01:42:00;;;;;;;;;;;;;;;3.32;100.00;99920.25;5098147;28;20264;-78
2024/02/07 01:44:26;;;;;;;;;;;;;;;3.34;100.00;99926.22;5092322;28;19956;-77
2024/02/07 01:47:12;;;;;;;;;;;;;;;3.33;100.00;99921.91;5101523;28;20000;-77
2024/02/07 01:49:41;;;;;;;;;;;;;;;3.32;100.00;99928.22;5095774;28;19935;-77
2024/02/07 01:52:07;;;;;;;;;;;;;;;3.31;100.00;99924.72;5097729;28;19916;-77
2024/02/07 01:54:32;;;;;;;;;;;;;;;3.37;100.00;99928.53;5073956;28;19999;-78
2024/02/07 01:56:57;;;;;;;;;;;;;;;3.33;100.00;99927.22;5074192;28;19989;-77
2024/02/07 01:59:23;;;;;;;;;;;;;;;3.34;100.00;99926.22;5098846;28;19926;-77
2024/02/07 02:01:48;;;;;;;;;;;;;;;3.33;100.00;99924.56;5077133;28;19928;-78
2024/02/07 02:04:16;;;;;;;;;;;;;;;3.27;100.00;99933.22;5096234;28;19920;-77
2024/02/07 02:06:41;;;;;;;;;;;;;;;3.19;100.00;99937.56;5095728;28;20015;-78
2024/02/07 02:09:06;;;;;;;;;;;;;;;3.15;100.00;99922.13;5091357;28;20006;-77
2024/02/07 02:11:33;;;;;;;;;;;;;;;3.18;100.00;99911.97;5075897;28;19970;-77
2024/02/07 02:13:58;;;;;;;;;;;;;;;3.21;100.00;99917.94;5082442;28;19946;-77
2024/02/07 02:16:24;;;;;;;;;;;;;;;3.17;100.00;99910.34;5077930;28;20287;-77
2024/02/07 02:18:49;;;;;;;;;;;;;;;3.20;100.00;99911.81;5092528;28;20379;-77
2024/02/07 02:21:19;;;;;;;;;;;;;;;3.16;100.00;99915.81;5091880;28;19919;-77
2024/02/07 02:24:02;;;;;;;;;;;;;;;3.16;100.00;99915.81;5070059;28;19981;-77
2024/02/07 02:26:50;;;;;;;;;;;;;;;3.12;100.00;99911.81;5080561;28;20010;-77
2024/02/07 02:29:20;;;;;;;;;;;;;;;3.18;100.00;99913.81;5103067;28;19942;-77
2024/02/07 02:31:46;;;;;;;;;;;;;;;3.10;100.00;99916.47;5102037;28;19920;-78
2024/02/07 02:34:11;;;;;;;;;;;;;;;3.10;100.00;99905.84;5088785;28;19928;-77
2024/02/07 02:36:36;;;;;;;;;;;;;;;3.07;100.00;99930.97;5094499;28;19981;-78
2024/02/07 02:39:05;;;;;;;;;;;;;;;3.10;100.00;99916.47;5076190;28;19916;-78
2024/02/07 02:41:31;;;;;;;;;;;;;;;3.09;100.00;99920.19;5086459;28;20011;-78
2024/02/07 02:43:56;;;;;;;;;;;;;;;3.08;100.00;99932.63;5103006;28;19977;-78
2024/02/07 02:46:22;;;;;;;;;;;;;;;3.00;100.00;99930.00;5095472;28;20371;-78
2024/02/07 02:48:47;;;;;;;;;;;;;;;3.04;100.00;99923.31;5099701;28;19925;-77
2024/02/07 02:51:12;;;;;;;;;;;;;;;3.05;100.00;99924.97;5123179;28;20428;-78
2024/02/07 02:53:38;;;;;;;;;;;;;;;3.05;100.00;99930.31;5100447;28;19916;-78
2024/02/07 02:56:05;;;;;;;;;;;;;;;3.08;100.00;99902.56;5096281;28;19942;-78
2024/02/07 02:58:30;;;;;;;;;;;;;;;3.03;100.00;99942.94;5100398;28;20410;-78
2024/02/07 03:00:56;;;;;;;;;;;;;;;3.04;100.00;99925.97;5096776;28;19963;-78
2024/02/07 03:03:22;;;;;;;;;;;;;;;3.06;100.00;99933.81;5104301;28;19920;-78
2024/02/07 03:06:18;;;;;;;;;;;;;;;3.05;100.00;99934.81;5093213;28;19950;-78
2024/02/07 03:08:53;;;;;;;;;;;;;;;3.05;100.00;99930.31;5101903;28;19920;-78
2024/02/07 03:11:20;;;;;;;;;;;;;;;3.00;100.00;99922.84;5092245;28;19920;-78
2024/02/07 03:13:46;;;;;;;;;;;;;;;3.00;100.00;99928.16;5107639;28;20031;-78
2024/02/07 03:16:12;;;;;;;;;;;;;;;2.97;100.00;99922.38;5093101;28;19975;-76
2024/02/07 03:18:38;;;;;;;;;;;;;;;2.97;100.00;99930.34;5089582;28;19969;-78
2024/02/07 03:21:06;;;;;;;;;;;;;;;2.99;100.00;99923.84;5101079;28;19920;-77
2024/02/07 03:23:32;;;;;;;;;;;;;;;2.89;100.00;99933.84;5105794;28;20271;-77
2024/02/07 03:25:57;;;;;;;;;;;;;;;2.79;100.00;99936.69;5108263;28;19919;-77
2024/02/07 03:28:22;;;;;;;;;;;;;;;2.72;100.00;99931.22;5099651;28;20097;-77
2024/02/07 03:30:48;;;;;;;;;;;;;;;2.59;100.00;99946.81;5101549;28;19927;-77
2024/02/07 03:33:13;;;;;;;;;;;;;;;2.43;100.00;99955.66;5090421;28;19920;-78
2024/02/07 03:35:41;;;;;;;;;;;;;;;2.45;100.00;99951.00;5090296;28;19927;-78
2024/02/07 03:38:07;;;;;;;;;;;;;;;2.34;100.00;99965.44;5098328;28;19966;-78
2024/02/07 03:40:33;;;;;;;;;;;;;;;2.34;100.00;99970.75;5096467;28;19919;-78
2024/02/07 03:42:59;;;;;;;;;;;;;;;2.36;100.00;99968.75;5101528;28;19955;-78
2024/02/07 03:45:25;;;;;;;;;;;;;;;2.32;100.00;99966.56;5104659;28;19959;-78
2024/02/07 03:47:50;;;;;;;;;;;;;;;2.27;100.00;99956.47;5092177;28;19924;-78
2024/02/07 03:50:25;;;;;;;;;;;;;;;2.20;100.00;99963.44;5099166;28;20007;-78
2024/02/07 03:52:50;;;;;;;;;;;;;;;2.20;100.00;99953.63;5093543;28;19916;-77
2024/02/07 03:55:15;;;;;;;;;;;;;;;2.23;100.00;99955.97;5100550;28;19946;-77
2024/02/07 03:57:42;;;;;;;;;;;;;;;2.27;100.00;99957.31;5093744;28;19924;-77
2024/02/07 04:00:08;;;;;;;;;;;;;;;2.26;100.00;99952.13;5098695;28;19951;-78
2024/02/07 04:02:36;;;;;;;;;;;;;;;2.23;100.00;99955.13;5093003;28;19931;-77
2024/02/07 04:05:01;;;;;;;;;;;;;;;2.19;100.00;99951.16;5094399;28;19932;-78
2024/02/07 04:07:27;;;;;;;;;;;;;;;2.12;100.00;99948.31;5103469;28;19965;-78
2024/02/07 04:09:56;;;;;;;;;;;;;;;2.07;100.00;99947.97;5098111;28;19924;-77
2024/02/07 05:17:24;;;;;;;;;;;;;;;1.93;100.00;99944.97;5102047;28;19926;-88
2024/02/07 05:19:50;;;;;;;;;;;;;;;1.83;100.00;99952.25;5101667;28;19920;-86
2024/02/07 05:22:18;;;;;;;;;;;;;;;1.79;100.00;99956.19;5103700;28;19920;-78
2024/02/07 05:24:46;;;;;;;;;;;;;;;1.83;100.00;99956.72;5106246;22;19931;-77
2024/02/07 05:27:12;;;;;;;;;;;;;;;1.83;100.00;99962.84;5105135;28;20383;-78
2024/02/07 05:29:59;;;;;;;;;;;;;;;1.81;100.00;99962.19;5101842;28;19919;-78
2024/02/07 05:32:27;;;;;;;;;;;;;;;1.79;100.00;99964.16;5103293;28;20010;-78
2024/02/07 05:34:52;;;;;;;;;;;;;;;1.81;100.00;99968.34;5098444;28;19928;-78
2024/02/07 05:37:20;;;;;;;;;;;;;;;1.84;100.00;99969.81;5100957;28;19964;-78
2024/02/07 05:39:51;;;;;;;;;;;;;;;1.90;100.00;99974.50;5109980;28;19955;-78
2024/02/07 05:42:17;;;;;;;;;;;;;;;1.94;100.00;99965.19;5103484;28;19920;-78
2024/02/07 05:44:55;;;;;;;;;;;;;;;2.09;100.00;99968.06;5105629;28;20386;-78
2024/02/07 05:47:21;;;;;;;;;;;;;;;2.16;100.00;99973.53;5107647;28;20026;-78
2024/02/07 05:49:58;;;;;;;;;;;;;;;2.00;100.00;99989.44;5109909;28;20010;-78
2024/02/07 05:52:44;;;;;;;;;;;;;;;1.90;100.00;99994.88;5103285;28;19930;-78
2024/02/07 05:55:12;;;;;;;;;;;;;;;1.80;100.00;99995.88;5105532;28;20030;-78
2024/02/07 05:57:55;;;;;;;;;;;;;;;1.81;100.00;100002.84;5099850;28;20292;-77
2024/02/07 06:00:35;;;;;;;;;;;;;;;1.81;100.00;100004.66;5104529;28;19971;-78
2024/02/07 06:03:12;;;;;;;;;;;;;;;1.90;100.00;100009.00;5099251;28;19971;-78
2024/02/07 06:05:50;;;;;;;;;;;;;;;1.86;100.00;100020.91;5114515;28;20367;-78
2024/02/07 06:08:15;;;;;;;;;;;;;;;1.80;100.00;100024.22;5107186;28;19927;-78
2024/02/07 06:10:54;;;;;;;;;;;;;;;1.79;100.00;100030.50;5114706;28;19921;-78
2024/02/07 06:13:32;;;;;;;;;;;;;;;1.79;100.00;100027.84;5104599;28;20750;-78
2024/02/07 06:15:58;;;;;;;;;;;;;;;1.76;100.00;100030.84;5107364;28;19928;-78
2024/02/07 06:18:29;;;;;;;;;;;;;;;1.77;100.00;100028.03;5110913;28;19927;-78
2024/02/07 06:21:09;;;;;;;;;;;;;;;1.80;100.00;100032.16;5109064;28;19923;-78
2024/02/07 06:23:34;;;;;;;;;;;;;;;1.80;100.00;100038.31;5101599;28;19939;-78
2024/02/07 06:25:59;;;;;;;;;;;;;;;1.73;100.00;100031.97;5106943;28;20307;-78
2024/02/07 06:28:34;;;;;;;;;;;;;;;1.69;100.00;100040.44;5113250;28;19951;-78
2024/02/07 06:30:59;;;;;;;;;;;;;;;1.71;100.00;100046.41;5103192;28;19967;-78
2024/02/07 06:33:39;;;;;;;;;;;;;;;1.67;100.00;100053.88;5101904;28;20354;-77
2024/02/07 06:36:13;;;;;;;;;;;;;;;1.64;100.00;100060.31;5111299;28;19920;-77
2024/02/07 06:38:39;;;;;;;;;;;;;;;1.65;100.00;100056.66;5094658;28;19927;-78
2024/02/07 06:41:23;;;;;;;;;;;;;;;1.69;100.00;100049.19;5110260;28;19924;-78
2024/02/07 06:43:48;;;;;;;;;;;;;;;1.70;100.00;100050.06;5108354;28;20383;-77
2024/02/07 06:46:17;;;;;;;;;;;;;;;1.71;100.00;100051.72;5105237;28;20014;-78
2024/02/07 06:48:42;;;;;;;;;;;;;;;1.69;100.00;100057.16;5108401;28;19945;-77
2024/02/07 06:51:07;;;;;;;;;;;;;;;1.72;100.00;100059.50;5113165;28;19919;-78
2024/02/07 06:53:44;;;;;;;;;;;;;;;1.73;100.00;100058.50;5111994;28;19938;-78
2024/02/07 06:56:10;;;;;;;;;;;;;;;1.73;100.00;100066.47;5106970;28;19923;-78
2024/02/07 06:58:35;;;;;;;;;;;;;;;1.72;100.00;100071.94;5104202;28;19921;-78
2024/02/07 07:01:15;;;;;;;;;;;;;;;1.69;100.00;100066.97;5103117;28;20013;-77
2024/02/07 07:03:41;;;;;;;;;;;;;;;1.70;100.00;100081.88;5116433;28;20287;-78
2024/02/07 07:06:06;;;;;;;;;;;;;;;1.66;100.00;100082.19;5107667;28;20316;-78
2024/02/07 07:08:31;;;;;;;;;;;;;;;1.66;100.00;100090.16;5097714;28;19934;-78
2024/02/07 07:10:56;;;;;;;;;;;;;;;1.65;100.00;100098.28;5105591;28;19931;-78
2024/02/07 07:13:22;;;;;;;;;;;;;;;1.67;100.00;100091.00;5105175;28;19920;-77
2024/02/07 07:15:47;;;;;;;;;;;;;;;1.74;100.00;100096.50;5105910;28;19930;-78
2024/02/07 07:18:12;;;;;;;;;;;;;;;1.74;100.00;100093.84;5111034;28;19957;-78
2024/02/07 07:20:37;;;;;;;;;;;;;;;1.70;100.00;100103.13;5106075;28;19941;-78
2024/02/07 07:23:03;;;;;;;;;;;;;;;1.75;100.00;100101.66;5111416;28;19928;-76
2024/02/07 07:25:28;;;;;;;;;;;;;;;1.73;100.00;100094.84;5112006;28;20374;-79
2024/02/07 07:27:53;;;;;;;;;;;;;;;1.72;100.00;100093.19;5109698;28;19930;-76
2024/02/07 07:30:18;;;;;;;;;;;;;;;1.80;100.00;100090.56;5112754;28;19919;-77
2024/02/07 07:32:43;;;;;;;;;;;;;;;1.96;100.00;100085.31;5109574;28;19924;-78
2024/02/07 07:35:09;;;;;;;;;;;;;;;1.87;100.00;100101.34;5113637;28;19920;-78
2024/02/07 07:37:34;;;;;;;;;;;;;;;1.86;100.00;100095.25;5105668;28;19920;-78
2024/02/07 07:39:59;;;;;;;;;;;;;;;1.91;100.00;100102.72;5108620;28;19954;-78
2024/02/07 07:42:24;;;;;;;;;;;;;;;1.86;100.00;100097.88;5097389;28;20486;-78
2024/02/07 07:44:50;;;;;;;;;;;;;;;1.91;100.00;100108.88;5102844;28;20013;-78
2024/02/07 07:47:15;;;;;;;;;;;;;;;1.91;100.00;100098.25;5108959;28;19968;-78
2024/02/07 07:49:43;;;;;;;;;;;;;;;1.99;100.00;100096.59;5112683;28;20384;-78
2024/02/07 07:52:08;;;;;;;;;;;;;;;1.95;100.00;100109.38;5103143;28;20334;-78
2024/02/07 07:54:34;;;;;;;;;;;;;;;1.99;100.00;100108.06;5104138;28;19920;-78
2024/02/07 07:56:59;;;;;;;;;;;;;;;2.12;100.00;100099.63;5102589;28;19920;-78
2024/02/07 07:59:25;;;;;;;;;;;;;;;2.21;100.00;100103.16;5111766;28;19920;-78
2024/02/07 08:01:59;;;;;;;;;;;;;;;2.13;100.00;100106.63;5105371;28;19924;-78
2024/02/07 08:04:25;;;;;;;;;;;;;;;2.06;100.00;100100.31;5111001;28;19923;-78
2024/02/07 08:06:50;;;;;;;;;;;;;;;1.97;100.00;100097.59;5110553;28;19976;-78
2024/02/07 08:09:15;;;;;;;;;;;;;;;1.93;100.00;100095.44;5100532;28;19980;-77
2024/02/07 08:11:41;;;;;;;;;;;;;;;1.97;100.00;100102.09;5102968;28;19922;-78
2024/02/07 08:14:06;;;;;;;;;;;;;;;2.02;100.00;100099.78;5096535;28;19970;-78
2024/02/07 08:16:31;;;;;;;;;;;;;;;2.01;100.00;100121.19;5103009;28;19926;-77
2024/02/07 08:18:57;;;;;;;;;;;;;;;1.96;100.00;100127.78;5103398;28;19916;-78
2024/02/07 08:21:22;;;;;;;;;;;;;;;2.05;100.00;100138.47;5111264;28;19919;-78
2024/02/07 08:23:47;;;;;;;;;;;;;;;2.04;100.00;100123.53;5103359;28;19923;-78
2024/02/07 08:26:12;;;;;;;;;;;;;;;2.03;100.00;100119.19;5109190;28;19988;-78
2024/02/07 08:28:38;;;;;;;;;;;;;;;2.01;100.00;100118.53;5106505;28;19916;-78
2024/02/07 08:31:03;;;;;;;;;;;;;;;2.00;100.00;100125.66;5105968;28;20009;-78
2024/02/07 08:33:28;;;;;;;;;;;;;;;2.07;100.00;100139.13;5104993;28;19928;-78
2024/02/07 08:35:56;;;;;;;;;;;;;;;2.07;100.00;100144.44;5110964;28;20343;-78
2024/02/07 08:38:21;;;;;;;;;;;;;;;2.09;100.00;100147.78;5082966;28;20371;-78
2024/02/07 08:40:47;;;;;;;;;;;;;;;2.14;100.00;100148.09;5094556;28;19931;-78
2024/02/07 08:43:12;;;;;;;;;;;;;;;2.19;100.00;100152.97;5101323;28;19920;-78
2024/02/07 08:45:38;;;;;;;;;;;;;;;2.15;100.00;100157.75;5107866;28;20021;-78
2024/02/07 08:48:04;;;;;;;;;;;;;;;2.21;100.00;100156.25;5094343;28;19928;-78
2024/02/07 08:50:29;;;;;;;;;;;;;;;2.26;100.00;100160.13;5111365;28;20379;-78
2024/02/07 08:52:54;;;;;;;;;;;;;;;2.32;100.00;100174.59;5110361;28;19945;-78
2024/02/07 08:55:19;;;;;;;;;;;;;;;2.37;100.00;100182.06;5107638;28;20002;-78
2024/02/07 08:57:45;;;;;;;;;;;;;;;2.39;100.00;100180.09;5112020;28;20011;-78
2024/02/07 09:00:10;;;;;;;;;;;;;;;2.42;100.00;100174.47;5103851;28;19965;-78
2024/02/07 09:02:35;;;;;;;;;;;;;;;2.43;100.00;100181.44;5109697;28;20006;-77
2024/02/07 09:05:04;;;;;;;;;;;;;;;2.46;100.00;100180.28;5107498;28;19992;-78
2024/02/07 09:07:30;;;;;;;;;;;;;;;2.50;100.00;100177.13;5100229;28;19920;-77
2024/02/07 09:09:55;;;;;;;;;;;;;;;2.51;100.00;100188.63;5112815;28;20100;-77
2024/02/07 09:12:20;;;;;;;;;;;;;;;2.45;100.00;100186.59;5117574;28;19932;-78
2024/02/07 09:14:45;;;;;;;;;;;;;;;2.40;100.00;100177.25;5110602;28;20219;-78
2024/02/07 09:17:10;;;;;;;;;;;;;;;2.47;100.00;100182.75;5104213;28;20378;-78
2024/02/07 09:19:36;;;;;;;;;;;;;;;2.52;100.00;100190.28;5103861;28;20256;-77
2024/02/07 09:22:01;;;;;;;;;;;;;;;2.47;100.00;100190.72;5102578;28;20461;-77
2024/02/07 09:24:26;;;;;;;;;;;;;;;2.51;100.00;100192.09;5107903;28;20324;-78
2024/02/07 09:26:53;;;;;;;;;;;;;;;2.48;100.00;100189.75;5105069;28;19920;-78
2024/02/07 09:29:18;;;;;;;;;;;;;;;2.49;100.00;100186.09;5110266;28;19919;-78
2024/02/07 09:31:44;;;;;;;;;;;;;;;2.54;100.00;100193.59;5105075;28;20259;-78
2024/02/07 09:34:09;;;;;;;;;;;;;;;2.55;100.00;100193.44;5110120;28;20317;-78
2024/02/07 09:36:38;;;;;;;;;;;;;;;2.55;100.00;100185.47;5099740;28;19932;-78
2024/02/07 09:39:03;;;;;;;;;;;;;;;2.58;100.00;100179.84;5109389;28;19928;-78
2024/02/07 09:41:28;;;;;;;;;;;;;;;2.62;100.00;100192.81;5099297;28;21160;-78
2024/02/07 09:43:54;;;;;;;;;;;;;;;2.65;100.00;100185.34;5094906;28;20038;-78
2024/02/07 09:46:21;;;;;;;;;;;;;;;2.67;100.00;100185.16;5092402;28;19951;-78
2024/02/07 09:48:46;;;;;;;;;;;;;;;2.74;100.00;100186.19;5099901;28;20363;-78
2024/02/07 09:51:14;;;;;;;;;;;;;;;2.77;100.00;100185.88;5107970;28;20090;-78
2024/02/07 09:53:40;;;;;;;;;;;;;;;2.85;100.00;100182.41;5109359;28;19920;-78
2024/02/07 09:56:05;;;;;;;;;;;;;;;2.87;100.00;100186.53;5097051;28;19920;-78
2024/02/07 09:58:30;;;;;;;;;;;;;;;2.92;100.00;100199.34;5106185;28;19924;-78
2024/02/07 10:00:55;;;;;;;;;;;;;;;2.94;100.00;100200.00;5086166;28;20086;-78
2024/02/07 10:03:24;;;;;;;;;;;;;;;2.97;100.00;100198.88;5109455;28;19920;-78
2024/02/07 10:05:50;;;;;;;;;;;;;;;3.01;100.00;100205.50;5100261;28;19924;-78
2024/02/07 10:08:15;;;;;;;;;;;;;;;3.09;100.00;100202.06;5106703;28;20343;-78
2024/02/07 10:10:43;;;;;;;;;;;;;;;3.09;100.00;100205.53;5094025;28;20018;-78
2024/02/07 10:13:08;;;;;;;;;;;;;;;3.09;100.00;100191.41;5100138;28;19993;-78
2024/02/07 10:15:33;;;;;;;;;;;;;;;3.17;100.00;100194.91;5092642;28;19924;-78
2024/02/07 10:18:00;;;;;;;;;;;;;;;3.23;100.00;100205.88;5091854;28;19935;-77
2024/02/07 10:20:26;;;;;;;;;;;;;;;3.30;100.00;100198.91;5109738;28;20045;-78
2024/02/07 10:22:51;;;;;;;;;;;;;;;3.38;100.00;100200.75;5101270;28;20327;-78
2024/02/07 10:25:16;;;;;;;;;;;;;;;3.42;100.00;100216.19;5103252;28;19919;-78
2024/02/07 10:27:42;;;;;;;;;;;;;;;3.45;100.00;100218.53;5096689;28;19920;-78
2024/02/07 10:30:08;;;;;;;;;;;;;;;3.48;100.00;100207.56;5108933;28;19924;-78
2024/02/07 10:32:33;;;;;;;;;;;;;;;3.45;100.00;100218.53;5102517;28;19993;-78
2024/02/07 10:34:58;;;;;;;;;;;;;;;3.46;100.00;100214.03;5107407;28;20011;-78
2024/02/07 10:37:24;;;;;;;;;;;;;;;3.42;100.00;100207.41;5105095;28;20282;-77
2024/02/07 10:39:49;;;;;;;;;;;;;;;3.44;100.00;100216.06;5098840;28;19966;-76
2024/02/07 10:42:16;;;;;;;;;;;;;;;3.44;100.00;100222.19;5108905;28;19953;-79
2024/02/07 10:44:42;;;;;;;;;;;;;;;3.41;100.00;100217.19;5101254;28;20043;-79
2024/02/07 10:47:07;;;;;;;;;;;;;;;3.36;100.00;100221.34;5106726;28;20423;-79
2024/02/07 10:49:33;;;;;;;;;;;;;;;3.37;100.00;100234.47;5105818;28;19920;-79
2024/02/07 10:51:58;;;;;;;;;;;;;;;3.54;100.00;100223.84;5113329;28;19920;-79
2024/02/07 10:54:23;;;;;;;;;;;;;;;3.54;100.00;100215.84;5098695;28;19984;-76
2024/02/07 10:56:49;;;;;;;;;;;;;;;3.54;100.00;100227.34;5094945;28;19919;-79
2024/02/07 10:59:14;;;;;;;;;;;;;;;3.56;100.00;100225.34;5113646;28;19923;-77
2024/02/07 11:01:39;;;;;;;;;;;;;;;3.61;100.00;100219.53;5093552;28;20317;-77
2024/02/07 11:04:05;;;;;;;;;;;;;;;3.71;100.00;100211.38;5105752;28;19920;-77
2024/02/07 11:06:31;;;;;;;;;;;;;;;3.87;100.00;100223.84;5104852;28;19923;-77
2024/02/07 11:08:57;;;;;;;;;;;;;;;3.82;100.00;100215.53;5092222;28;19920;-77
2024/02/07 11:11:23;;;;;;;;;;;;;;;3.90;100.00;100220.81;5105190;28;19927;-77
2024/02/07 11:13:48;;;;;;;;;;;;;;;4.05;100.00;100221.81;5105186;28;19963;-77
2024/02/07 11:16:14;;;;;;;;;;;;;;;4.18;100.00;100218.59;5099837;28;19930;-76
2024/02/07 11:18:39;;;;;;;;;;;;;;;4.23;100.00;100216.25;5124462;28;20016;-77
2024/02/07 11:21:04;;;;;;;;;;;;;;;4.38;100.00;100215.53;5106702;28;19915;-77
2024/02/07 11:23:31;;;;;;;;;;;;;;;4.42;100.00;100208.88;5101746;28;19920;-77
2024/02/07 11:25:57;;;;;;;;;;;;;;;4.49;100.00;100215.19;5109153;28;20290;-77
2024/02/07 11:28:22;;;;;;;;;;;;;;;4.46;100.00;100214.69;5095090;28;19926;-79
2024/02/07 11:30:49;;;;;;;;;;;;;;;4.72;100.00;100213.59;5111339;28;19920;-78
2024/02/07 11:33:14;;;;;;;;;;;;;;;5.09;100.00;100209.38;5111463;28;19930;-78
2024/02/07 11:35:40;;;;;;;;;;;;;;;5.28;100.00;100206.25;5104406;28;19920;-78
2024/02/07 11:38:08;;;;;;;;;;;;;;;5.05;100.00;100208.88;5111998;28;19930;-78
2024/02/07 11:40:37;;;;;;;;;;;;;;;5.26;100.00;100189.56;5098317;28;19962;-78
2024/02/07 11:43:02;;;;;;;;;;;;;;;5.58;100.00;100197.47;5107448;28;19930;-78
2024/02/07 11:45:27;;;;;;;;;;;;;;;5.53;100.00;100194.53;5108628;28;19928;-78
2024/02/07 11:47:54;;;;;;;;;;;;;;;5.66;100.00;100194.75;5106094;28;19919;-79
2024/02/07 11:50:19;;;;;;;;;;;;;;;6.00;100.00;100196.13;5111571;28;19920;-78
2024/02/07 11:52:45;;;;;;;;;;;;;;;6.21;100.00;100200.72;5095355;28;19962;-79
2024/02/07 11:55:11;;;;;;;;;;;;;;;6.49;98.04;100199.22;5108461;28;20380;-79
2024/02/07 11:57:38;;;;;;;;;;;;;;;6.82;98.34;100199.63;5095190;28;20383;-78
2024/02/07 12:00:07;;;;;;;;;;;;;;;7.26;96.50;100210.38;5108329;28;19930;-78
2024/02/07 12:02:32;;;;;;;;;;;;;;;7.62;90.88;100198.75;5098794;28;19972;-78
2024/02/07 12:04:57;;;;;;;;;;;;;;;7.89;85.67;100207.00;5106435;28;19924;-76
2024/02/07 12:07:22;;;;;;;;;;;;;;;8.26;82.41;100199.63;5099988;28;19920;-77
2024/02/07 12:09:48;;;;;;;;;;;;;;;8.46;83.06;100188.16;5104555;28;19923;-77
2024/02/07 12:12:13;;;;;;;;;;;;;;;8.79;84.41;100193.66;5093061;28;20004;-77
2024/02/07 12:14:48;;;;;;;;;;;;;;;9.04;77.90;100194.97;5101701;28;19998;-77
2024/02/07 12:17:14;;;;;;;;;;;;;;;8.48;74.25;100186.94;5101639;28;20429;-77
2024/02/07 12:19:41;;;;;;;;;;;;;;;8.21;75.17;100190.50;5111491;28;20246;-76
2024/02/07 12:22:07;;;;;;;;;;;;;;;8.74;75.32;100195.31;5110420;28;20014;-77
2024/02/07 12:24:32;;;;;;;;;;;;;;;9.19;77.29;100192.94;5108724;28;20974;-77
2024/02/07 12:27:10;;;;;;;;;;;;;;;9.39;70.23;100194.81;5093632;28;19920;-77
2024/02/07 12:29:36;;;;;;;;;;;;;;;10.09;69.89;100191.69;5109203;28;19926;-77
2024/02/07 12:32:04;;;;;;;;;;;;;;;10.02;63.47;100201.63;5112357;28;19919;-78
2024/02/07 12:34:29;;;;;;;;;;;;;;;10.21;65.79;100201.81;5109688;28;19920;-77
2024/02/07 12:36:54;;;;;;;;;;;;;;;10.65;66.61;100210.19;5122014;22;19935;-78
2024/02/07 12:39:23;;;;;;;;;;;;;;;11.20;59.68;100204.28;5106143;28;19920;-78
2024/02/07 12:42:06;;;;;;;;;;;;;;;11.22;57.12;100219.19;5104671;28;19971;-78
2024/02/07 12:44:32;;;;;;;;;;;;;;;10.86;57.59;100212.56;5103012;28;19927;-78
2024/02/07 12:47:03;;;;;;;;;;;;;;;10.91;57.17;100218.13;5110901;28;19935;-77
2024/02/07 12:49:43;;;;;;;;;;;;;;;10.52;55.71;100214.56;5112516;28;19928;-78
2024/02/07 12:52:27;;;;;;;;;;;;;;;10.82;58.96;100215.91;5110496;28;20382;-77
2024/02/07 12:54:52;;;;;;;;;;;;;;;10.82;58.05;100226.66;5096228;28;20026;-78
2024/02/07 12:57:33;;;;;;;;;;;;;;;11.07;54.52;100221.34;5112340;28;20014;-78
2024/02/07 13:00:16;;;;;;;;;;;;;;;10.34;58.35;100212.53;5111054;28;20105;-79
2024/02/07 13:05:11;;;;;;;;;;;;;;;11.16;56.77;100189.59;5138899;22;19961;-77
2024/02/07 13:07:52;;;;;;;;;;;;;;;11.36;53.75;100193.00;5131422;27;19930;-77
2024/02/07 13:10:17;;;;;;;;;;;;;;;11.41;54.40;100186.13;5126186;27;19919;-77
2024/02/07 13:12:57;;;;;;;;;;;;;;;11.63;51.01;100192.81;5112402;27;19926;-77
2024/02/07 13:15:28;;;;;;;;;;;;;;;11.50;50.48;100195.59;5131468;27;19919;-77
2024/02/07 13:17:59;;;;;;;;;;;;;;;11.70;52.65;100194.59;5131899;27;19949;-77
2024/02/07 13:20:30;;;;;;;;;;;;;;;11.64;47.05;100193.59;5131921;27;19975;-77
2024/02/07 13:22:56;;;;;;;;;;;;;;;11.91;50.80;100199.59;5143990;27;19984;-78
2024/02/07 13:25:25;;;;;;;;;;;;;;;11.96;50.66;100202.47;5128626;27;19923;-78
2024/02/07 13:28:08;;;;;;;;;;;;;;;11.83;48.19;100200.72;5130863;27;20003;-78
2024/02/07 13:30:42;;;;;;;;;;;;;;;11.04;51.12;100193.00;5109952;28;19915;-78
2024/02/07 13:33:08;;;;;;;;;;;;;;;10.96;53.71;100189.75;5131537;27;19924;-78
2024/02/07 13:35:47;;;;;;;;;;;;;;;10.97;48.63;100189.50;5131426;27;20317;-78
2024/02/07 13:38:12;;;;;;;;;;;;;;;11.61;49.10;100189.50;5130398;27;19935;-78
2024/02/07 13:40:41;;;;;;;;;;;;;;;12.40;44.87;100193.50;5131945;27;20282;-78
2024/02/07 13:43:06;;;;;;;;;;;;;;;10.57;52.76;100182.47;5122916;27;20030;-78
2024/02/07 13:45:34;;;;;;;;;;;;;;;9.61;53.45;100189.25;5130199;27;20528;-78
2024/02/07 13:48:17;;;;;;;;;;;;;;;9.58;53.90;100181.59;5131716;27;19919;-78
2024/02/07 13:50:43;;;;;;;;;;;;;;;9.88;54.65;100176.63;5128722;27;19919;-78